Nearby METAR Reports

 

K9MN - St Mary Hospital, Minnesota, USA
Distance from station: SW 3mi, 4km
Updated: 06/18/2024 3:15am
Clear
Clear
 Wind from SE
Wind: SE 12 mph, 19 km/h, Gust: 21 mph, 33 km/h
Temperature: 73°F, 23°C
Dew Point: 68°F, 20°C
Humidity: 83%
Barometer: 29.71 inHg, 1006.1 hPa
Clouds: Clear
Visibility: 10 miles, 16 km
2024/06/18 08:15 K9MN 180815Z AUTO 14010G18KT 110V170 10SM CLR 23/20 A2971 RMK AO1 T02250198
KRST - Rochester, Minnesota, USA
Distance from station: SSW 10mi, 16km
Updated: 06/18/2024 2:54am
Clear
Clear
 Wind from SSE
Wind: SSE 15 mph, 24 km/h
Temperature: 72°F, 22°C
Dew Point: 66°F, 19°C
Humidity: 83%
Barometer: 29.73 inHg, 1006.8 hPa
Clouds: Clear
Visibility: 10 miles, 16 km
2024/06/18 07:54 KRST 180754Z AUTO 16013KT 10SM CLR 22/19 A2973 RMK AO2 SLP059 T02170189 $
 
KTOB - Dodge Center, Minnesota, USA
Distance from station: W 19mi, 30km
Updated: 06/18/2024 3:15am
Clear
Clear
 Wind from SSE
Wind: SSE 17 mph, 28 km/h, Gust: 23 mph, 37 km/h
Temperature: 73°F, 23°C
Dew Point: 68°F, 20°C
Humidity: 83%
Barometer: 29.70 inHg, 1005.8 hPa
Clouds: Clear
Visibility: 10 miles, 16 km
2024/06/18 08:15 KTOB 180815Z AUTO 16015G20KT 10SM CLR 23/20 A2970 RMK AO2
KFKA - Preston, Minnesota, USA
Distance from station: SSE 28mi, 45km
Updated: 06/18/2024 3:15am
Clear
Clear
 Wind from S
Wind: S 15 mph, 24 km/h
Temperature: 73°F, 23°C
Dew Point: 73°F, 23°C
Humidity: 100%
Barometer: 29.75 inHg, 1007.5 hPa
Clouds: Clear
Visibility: 10 miles, 16 km
2024/06/18 08:15 KFKA 180815Z AUTO 17013KT 10SM CLR 23/23 A2975 RMK AO2
 
KAUM - Austin Muni, Minnesota, USA
Distance from station: SW 35mi, 57km
Updated: 06/18/2024 3:15am
Clear
Clear
 Wind from S
Wind: S 12 mph, 19 km/h, Gust: 17 mph, 28 km/h
Temperature: 75°F, 24°C
Dew Point: 70°F, 21°C
Humidity: 83%
Barometer: 29.71 inHg, 1006.1 hPa
Clouds: Clear
Visibility: 10 miles, 16 km
2024/06/18 08:15 KAUM 180815Z AUTO 17010G15KT 10SM CLR 24/21 A2971 RMK AO2
KONA - Winona Muni, Minnesota, USA
Distance from station: E 37mi, 59km
Updated: 06/18/2024 3:15am
Clear
Clear
 Wind from SSE
Wind: SSE 5 mph, 7 km/h
Temperature: 68°F, 20°C
Dew Point: 66°F, 19°C
Humidity: 94%
Barometer: 29.73 inHg, 1006.8 hPa
Clouds: Clear
Visibility: 10 miles, 16 km
2024/06/18 08:15 KONA 180815Z AUTO 15004KT 10SM CLR 20/19 A2973 RMK AO2
 
KRGK - Red Wing, Minnesota, USA
Distance from station: N 38mi, 61km
Updated: 06/18/2024 3:15am
Clear
Clear
 Wind from SE
Wind: SE 9 mph, 15 km/h
Barometer: 29.65 inHg, 1004.1 hPa
Clouds: Clear
Visibility: 10 miles, 16 km
2024/06/18 08:15 KRGK 180815Z AUTO 14008KT 10SM CLR A2965 RMK AO2
KOWA - Owatonna, Minnesota, USA
Distance from station: W 41mi, 65km
Updated: 06/18/2024 3:13am
Clear
Clear
 Wind from SSE
Wind: SSE 17 mph, 28 km/h, Gust: 24 mph, 39 km/h
Temperature: 75°F, 24°C
Dew Point: 68°F, 20°C
Humidity: 78%
Barometer: 29.65 inHg, 1004.1 hPa
Clouds: Clear
Visibility: 10 miles, 16 km
2024/06/18 08:13 KOWA 180813Z AUTO 16015G21KT 10SM CLR 24/20 A2965 RMK AO2
 
KSYN - Stanton, Minnesota, USA
Distance from station: NW 42mi, 68km
Updated: 06/18/2024 3:15am
Clear
Clear
 Wind from S
Wind: S 12 mph, 19 km/h, Gust: 18 mph, 30 km/h
Temperature: 75°F, 24°C
Dew Point: 66°F, 19°C
Humidity: 74%
Barometer: 29.64 inHg, 1003.7 hPa
Clouds: Clear
Visibility: 10 miles, 16 km
2024/06/18 08:15 KSYN 180815Z AUTO 17010G16KT 10SM CLR 24/19 A2964 RMK AO2 T02360191
KFBL - Faribault Muni, Minnesota, USA
Distance from station: WNW 48mi, 77km
Updated: 06/18/2024 3:15am
Clear
Clear
 Wind from SE
Wind: SE 18 mph, 30 km/h, Gust: 26 mph, 43 km/h
Temperature: 77°F, 25°C
Dew Point: 68°F, 20°C
Humidity: 74%
Barometer: 29.64 inHg, 1003.7 hPa
Clouds: Clear
Visibility: 10 miles, 16 km
2024/06/18 08:15 KFBL 180815Z AUTO 14016G23KT 10SM CLR 25/20 A2964 RMK AO2